sensor_id;sensor_type;location;lat;lon;timestamp;pressure;altitude;pressure_sealevel;temperature;humidity
74327;BME280;62745;51.060;13.786;2023-08-21T00:01:36;100732.34;;;22.28;100.00
74327;BME280;62745;51.060;13.786;2023-08-21T00:04:01;100742.38;;;22.23;100.00
74327;BME280;62745;51.060;13.786;2023-08-21T00:06:26;100738.44;;;22.13;100.00
74327;BME280;62745;51.060;13.786;2023-08-21T00:08:51;100734.91;;;22.13;100.00
74327;BME280;62745;51.060;13.786;2023-08-21T00:11:17;100732.44;;;22.11;100.00
74327;BME280;62745;51.060;13.786;2023-08-21T00:13:42;100731.63;;;22.11;100.00
74327;BME280;62745;51.060;13.786;2023-08-21T00:16:10;100729.97;;;22.10;100.00
74327;BME280;62745;51.060;13.786;2023-08-21T00:18:36;100725.75;;;22.19;100.00
74327;BME280;62745;51.060;13.786;2023-08-21T00:21:01;100724.41;;;22.21;100.00
74327;BME280;62745;51.060;13.786;2023-08-21T00:23:27;100729.28;;;22.19;100.00
74327;BME280;62745;51.060;13.786;2023-08-21T00:25:52;100731.09;;;22.14;100.00
74327;BME280;62745;51.060;13.786;2023-08-21T00:28:17;100731.38;;;22.12;100.00
74327;BME280;62745;51.060;13.786;2023-08-21T00:30:42;100728.53;;;22.02;100.00
74327;BME280;62745;51.060;13.786;2023-08-21T00:33:08;100726.13;;;22.06;100.00
74327;BME280;62745;51.060;13.786;2023-08-21T00:35:33;100714.19;;;22.07;100.00
74327;BME280;62745;51.060;13.786;2023-08-21T00:37:59;100712.28;;;22.07;100.00
74327;BME280;62745;51.060;13.786;2023-08-21T00:40:24;100713.13;;;22.13;100.00
74327;BME280;62745;51.060;13.786;2023-08-21T00:42:49;100707.41;;;22.09;100.00
74327;BME280;62745;51.060;13.786;2023-08-21T00:45:15;100703.44;;;22.00;100.00
74327;BME280;62745;51.060;13.786;2023-08-21T00:47:42;100704.69;;;21.87;100.00
74327;BME280;62745;51.060;13.786;2023-08-21T00:50:08;100707.16;;;21.89;100.00
74327;BME280;62745;51.060;13.786;2023-08-21T00:52:35;100706.25;;;21.83;100.00
74327;BME280;62745;51.060;13.786;2023-08-21T00:55:01;100702.16;;;21.81;100.00
74327;BME280;62745;51.060;13.786;2023-08-21T00:57:27;100712.56;;;21.84;100.00
74327;BME280;62745;51.060;13.786;2023-08-21T00:59:53;100708.41;;;21.81;100.00
74327;BME280;62745;51.060;13.786;2023-08-21T01:02:19;100709.50;;;21.80;100.00
74327;BME280;62745;51.060;13.786;2023-08-21T01:04:44;100703.25;;;21.80;100.00
74327;BME280;62745;51.060;13.786;2023-08-21T01:07:10;100701.28;;;21.75;100.00
74327;BME280;62745;51.060;13.786;2023-08-21T01:09:49;100698.31;;;21.77;100.00
74327;BME280;62745;51.060;13.786;2023-08-21T01:12:35;100715.16;;;21.74;100.00
74327;BME280;62745;51.060;13.786;2023-08-21T01:15:06;100713.00;;;21.76;100.00
74327;BME280;62745;51.060;13.786;2023-08-21T01:17:34;100708.63;;;21.75;100.00
74327;BME280;62745;51.060;13.786;2023-08-21T01:20:01;100714.31;;;21.73;100.00
74327;BME280;62745;51.060;13.786;2023-08-21T01:22:35;100707.06;;;21.57;100.00
74327;BME280;62745;51.060;13.786;2023-08-21T01:25:01;100714.97;;;21.58;100.00
74327;BME280;62745;51.060;13.786;2023-08-21T01:27:26;100721.72;;;21.56;100.00
74327;BME280;62745;51.060;13.786;2023-08-21T01:29:52;100714.41;;;21.56;100.00
74327;BME280;62745;51.060;13.786;2023-08-21T01:32:26;100718.00;;;21.62;100.00
74327;BME280;62745;51.060;13.786;2023-08-21T01:34:55;100722.59;;;21.61;100.00
74327;BME280;62745;51.060;13.786;2023-08-21T01:37:21;100723.16;;;21.63;100.00
74327;BME280;62745;51.060;13.786;2023-08-21T01:39:46;100723.44;;;21.62;100.00
74327;BME280;62745;51.060;13.786;2023-08-21T01:42:11;100715.47;;;21.55;100.00
74327;BME280;62745;51.060;13.786;2023-08-21T01:44:37;100714.34;;;21.51;100.00
74327;BME280;62745;51.060;13.786;2023-08-21T01:47:02;100708.56;;;21.48;100.00
74327;BME280;62745;51.060;13.786;2023-08-21T01:49:28;100697.06;;;21.41;100.00
74327;BME280;62745;51.060;13.786;2023-08-21T01:51:53;100710.03;;;21.34;100.00
74327;BME280;62745;51.060;13.786;2023-08-21T01:54:18;100696.38;;;21.28;100.00
74327;BME280;62745;51.060;13.786;2023-08-21T01:56:43;100698.78;;;21.25;100.00
74327;BME280;62745;51.060;13.786;2023-08-21T01:59:09;100701.16;;;21.21;100.00
74327;BME280;62745;51.060;13.786;2023-08-21T02:01:34;100710.63;;;21.19;100.00
74327;BME280;62745;51.060;13.786;2023-08-21T02:03:59;100706.19;;;21.13;100.00
74327;BME280;62745;51.060;13.786;2023-08-21T02:06:25;100697.13;;;21.07;100.00
74327;BME280;62745;51.060;13.786;2023-08-21T02:08:50;100701.19;;;21.05;100.00
74327;BME280;62745;51.060;13.786;2023-08-21T02:11:15;100713.84;;;20.99;100.00
74327;BME280;62745;51.060;13.786;2023-08-21T02:13:41;100712.41;;;20.91;100.00
74327;BME280;62745;51.060;13.786;2023-08-21T02:16:06;100706.66;;;20.88;100.00
74327;BME280;62745;51.060;13.786;2023-08-21T02:18:31;100701.38;;;20.81;100.00
74327;BME280;62745;51.060;13.786;2023-08-21T02:20:57;100703.13;;;20.70;100.00
74327;BME280;62745;51.060;13.786;2023-08-21T02:23:22;100705.84;;;20.70;100.00
74327;BME280;62745;51.060;13.786;2023-08-21T02:25:49;100702.19;;;20.65;100.00
74327;BME280;62745;51.060;13.786;2023-08-21T02:28:14;100716.69;;;20.70;100.00
74327;BME280;62745;51.060;13.786;2023-08-21T02:30:41;100702.94;;;20.77;100.00
74327;BME280;62745;51.060;13.786;2023-08-21T02:33:06;100707.63;;;20.82;100.00
74327;BME280;62745;51.060;13.786;2023-08-21T02:35:31;100700.72;;;20.74;100.00
74327;BME280;62745;51.060;13.786;2023-08-21T02:37:57;100717.19;;;20.51;100.00
74327;BME280;62745;51.060;13.786;2023-08-21T02:40:22;100706.41;;;20.56;100.00
74327;BME280;62745;51.060;13.786;2023-08-21T02:42:47;100711.78;;;20.51;100.00
74327;BME280;62745;51.060;13.786;2023-08-21T02:45:13;100708.31;;;20.55;100.00
74327;BME280;62745;51.060;13.786;2023-08-21T02:47:39;100705.59;;;20.55;100.00
74327;BME280;62745;51.060;13.786;2023-08-21T02:50:05;100705.53;;;20.50;100.00
74327;BME280;62745;51.060;13.786;2023-08-21T02:52:32;100705.16;;;20.47;100.00
74327;BME280;62745;51.060;13.786;2023-08-21T02:54:58;100699.28;;;20.50;100.00
74327;BME280;62745;51.060;13.786;2023-08-21T02:57:24;100706.00;;;20.47;100.00
74327;BME280;62745;51.060;13.786;2023-08-21T02:59:49;100703.28;;;20.47;100.00
74327;BME280;62745;51.060;13.786;2023-08-21T03:02:15;100702.28;;;20.36;100.00
74327;BME280;62745;51.060;13.786;2023-08-21T03:04:40;100705.31;;;20.40;100.00
74327;BME280;62745;51.060;13.786;2023-08-21T03:07:06;100706.38;;;20.39;100.00
74327;BME280;62745;51.060;13.786;2023-08-21T03:09:31;100703.53;;;20.46;100.00
74327;BME280;62745;51.060;13.786;2023-08-21T03:11:56;100711.03;;;20.55;100.00
74327;BME280;62745;51.060;13.786;2023-08-21T03:14:21;100712.66;;;20.73;100.00
74327;BME280;62745;51.060;13.786;2023-08-21T03:16:47;100714.34;;;20.96;100.00
74327;BME280;62745;51.060;13.786;2023-08-21T03:19:12;100715.19;;;20.96;100.00
74327;BME280;62745;51.060;13.786;2023-08-21T03:21:37;100710.88;;;21.17;100.00
74327;BME280;62745;51.060;13.786;2023-08-21T03:24:02;100712.41;;;21.30;100.00
74327;BME280;62745;51.060;13.786;2023-08-21T03:26:28;100702.78;;;21.39;100.00
74327;BME280;62745;51.060;13.786;2023-08-21T03:28:53;100709.53;;;21.37;100.00
74327;BME280;62745;51.060;13.786;2023-08-21T03:31:18;100717.69;;;21.37;100.00
74327;BME280;62745;51.060;13.786;2023-08-21T03:33:44;100716.09;;;21.41;100.00
74327;BME280;62745;51.060;13.786;2023-08-21T03:36:09;100716.03;;;21.57;100.00
74327;BME280;62745;51.060;13.786;2023-08-21T03:38:34;100726.78;;;21.47;100.00
74327;BME280;62745;51.060;13.786;2023-08-21T03:41:00;100722.94;;;21.43;100.00
74327;BME280;62745;51.060;13.786;2023-08-21T03:43:25;100713.19;;;21.25;100.00
74327;BME280;62745;51.060;13.786;2023-08-21T03:45:51;100720.78;;;21.07;100.00
74327;BME280;62745;51.060;13.786;2023-08-21T03:48:16;100727.38;;;20.94;100.00
74327;BME280;62745;51.060;13.786;2023-08-21T03:50:41;100725.41;;;20.89;100.00
74327;BME280;62745;51.060;13.786;2023-08-21T03:53:07;100720.38;;;20.81;100.00
74327;BME280;62745;51.060;13.786;2023-08-21T03:55:33;100726.53;;;20.93;100.00
74327;BME280;62745;51.060;13.786;2023-08-21T03:57:58;100725.84;;;21.20;100.00
74327;BME280;62745;51.060;13.786;2023-08-21T04:00:24;100729.88;;;21.34;100.00
74327;BME280;62745;51.060;13.786;2023-08-21T04:02:49;100694.53;;;20.95;100.00
74327;BME280;62745;51.060;13.786;2023-08-21T04:05:14;100720.28;;;20.93;100.00
74327;BME280;62745;51.060;13.786;2023-08-21T04:07:40;100722.28;;;20.81;100.00
74327;BME280;62745;51.060;13.786;2023-08-21T04:10:06;100723.09;;;20.64;100.00
74327;BME280;62745;51.060;13.786;2023-08-21T04:12:31;100736.28;;;20.72;100.00
74327;BME280;62745;51.060;13.786;2023-08-21T04:14:56;100726.63;;;20.65;100.00
74327;BME280;62745;51.060;13.786;2023-08-21T04:17:22;100732.75;;;20.72;100.00
74327;BME280;62745;51.060;13.786;2023-08-21T04:19:48;100723.47;;;20.68;100.00
74327;BME280;62745;51.060;13.786;2023-08-21T04:22:13;100719.00;;;20.62;100.00
74327;BME280;62745;51.060;13.786;2023-08-21T04:24:41;100723.72;;;20.66;100.00
74327;BME280;62745;51.060;13.786;2023-08-21T04:27:07;100717.78;;;20.53;100.00
74327;BME280;62745;51.060;13.786;2023-08-21T04:29:32;100718.97;;;20.45;100.00
74327;BME280;62745;51.060;13.786;2023-08-21T04:31:58;100720.56;;;20.41;100.00
74327;BME280;62745;51.060;13.786;2023-08-21T04:34:23;100726.56;;;20.43;100.00
74327;BME280;62745;51.060;13.786;2023-08-21T04:36:48;100723.09;;;20.48;100.00
74327;BME280;62745;51.060;13.786;2023-08-21T04:39:14;100716.78;;;20.42;100.00
74327;BME280;62745;51.060;13.786;2023-08-21T04:41:40;100735.38;;;20.50;100.00
74327;BME280;62745;51.060;13.786;2023-08-21T04:44:05;100730.91;;;20.44;100.00
74327;BME280;62745;51.060;13.786;2023-08-21T04:46:31;100728.06;;;20.51;100.00
74327;BME280;62745;51.060;13.786;2023-08-21T04:48:56;100735.53;;;20.60;100.00
74327;BME280;62745;51.060;13.786;2023-08-21T04:51:24;100736.69;;;20.64;100.00
74327;BME280;62745;51.060;13.786;2023-08-21T04:53:49;100739.75;;;20.68;100.00
74327;BME280;62745;51.060;13.786;2023-08-21T04:56:14;100723.84;;;20.60;100.00
74327;BME280;62745;51.060;13.786;2023-08-21T04:58:40;100730.53;;;20.69;100.00
74327;BME280;62745;51.060;13.786;2023-08-21T05:01:05;100739.25;;;20.71;100.00
74327;BME280;62745;51.060;13.786;2023-08-21T05:03:30;100721.22;;;20.65;100.00
74327;BME280;62745;51.060;13.786;2023-08-21T05:09:36;100691.25;;;20.77;100.00
74327;BME280;62745;51.060;13.786;2023-08-21T05:12:20;100748.56;;;21.30;100.00
74327;BME280;62745;51.060;13.786;2023-08-21T05:15:07;100749.28;;;21.43;100.00
74327;BME280;62745;51.060;13.786;2023-08-21T05:17:32;100697.81;;;20.97;100.00
74327;BME280;62745;51.060;13.786;2023-08-21T05:19:57;100735.91;;;21.19;100.00
74327;BME280;62745;51.060;13.786;2023-08-21T05:22:23;100748.50;;;21.25;100.00
74327;BME280;62745;51.060;13.786;2023-08-21T05:24:48;100737.38;;;21.10;100.00
74327;BME280;62745;51.060;13.786;2023-08-21T05:27:13;100757.47;;;21.26;100.00
74327;BME280;62745;51.060;13.786;2023-08-21T05:29:39;100743.28;;;21.24;100.00
74327;BME280;62745;51.060;13.786;2023-08-21T05:32:04;100742.00;;;21.26;100.00
74327;BME280;62745;51.060;13.786;2023-08-21T05:34:30;100768.06;;;21.44;100.00
74327;BME280;62745;51.060;13.786;2023-08-21T05:36:55;100754.94;;;21.58;100.00
74327;BME280;62745;51.060;13.786;2023-08-21T05:39:21;100751.69;;;21.61;100.00
74327;BME280;62745;51.060;13.786;2023-08-21T05:41:46;100763.03;;;21.75;100.00
74327;BME280;62745;51.060;13.786;2023-08-21T05:44:11;100766.75;;;21.90;100.00
74327;BME280;62745;51.060;13.786;2023-08-21T05:46:36;100772.25;;;21.96;100.00
74327;BME280;62745;51.060;13.786;2023-08-21T05:49:03;100751.59;;;22.00;100.00
74327;BME280;62745;51.060;13.786;2023-08-21T05:51:28;100769.88;;;22.26;100.00
74327;BME280;62745;51.060;13.786;2023-08-21T05:53:53;100775.69;;;22.35;100.00
74327;BME280;62745;51.060;13.786;2023-08-21T05:56:19;100754.47;;;22.37;100.00
74327;BME280;62745;51.060;13.786;2023-08-21T05:58:44;100752.19;;;22.56;100.00
74327;BME280;62745;51.060;13.786;2023-08-21T06:01:11;100764.63;;;22.78;100.00
74327;BME280;62745;51.060;13.786;2023-08-21T06:03:36;100760.72;;;22.96;100.00
74327;BME280;62745;51.060;13.786;2023-08-21T06:06:01;100743.00;;;22.99;100.00
74327;BME280;62745;51.060;13.786;2023-08-21T06:08:26;100747.19;;;23.11;100.00
74327;BME280;62745;51.060;13.786;2023-08-21T06:10:52;100756.53;;;23.21;100.00
74327;BME280;62745;51.060;13.786;2023-08-21T06:13:17;100739.63;;;23.19;100.00
74327;BME280;62745;51.060;13.786;2023-08-21T06:15:43;100748.72;;;23.39;100.00
74327;BME280;62745;51.060;13.786;2023-08-21T06:18:10;100747.38;;;23.47;100.00
74327;BME280;62745;51.060;13.786;2023-08-21T06:20:35;100753.50;;;23.59;100.00
74327;BME280;62745;51.060;13.786;2023-08-21T06:23:01;100760.03;;;23.63;100.00
74327;BME280;62745;51.060;13.786;2023-08-21T06:25:26;100748.09;;;23.75;100.00
74327;BME280;62745;51.060;13.786;2023-08-21T06:27:51;100753.00;;;23.78;100.00
74327;BME280;62745;51.060;13.786;2023-08-21T06:30:17;100753.09;;;24.03;100.00
74327;BME280;62745;51.060;13.786;2023-08-21T06:32:43;100750.38;;;24.13;100.00
74327;BME280;62745;51.060;13.786;2023-08-21T06:35:09;100758.34;;;24.30;100.00
74327;BME280;62745;51.060;13.786;2023-08-21T06:37:34;100759.47;;;24.39;100.00
74327;BME280;62745;51.060;13.786;2023-08-21T06:39:59;100735.91;;;24.13;100.00
74327;BME280;62745;51.060;13.786;2023-08-21T06:42:25;100746.59;;;24.19;100.00
74327;BME280;62745;51.060;13.786;2023-08-21T06:44:50;100740.28;;;24.04;100.00
74327;BME280;62745;51.060;13.786;2023-08-21T06:47:15;100750.88;;;23.95;100.00
74327;BME280;62745;51.060;13.786;2023-08-21T06:49:41;100746.78;;;23.87;100.00
74327;BME280;62745;51.060;13.786;2023-08-21T06:52:06;100750.63;;;23.96;100.00
74327;BME280;62745;51.060;13.786;2023-08-21T06:54:31;100751.41;;;23.87;100.00
74327;BME280;62745;51.060;13.786;2023-08-21T06:56:57;100755.19;;;23.81;100.00
74327;BME280;62745;51.060;13.786;2023-08-21T06:59:23;100757.31;;;23.58;100.00
74327;BME280;62745;51.060;13.786;2023-08-21T07:01:49;100755.19;;;23.70;100.00
74327;BME280;62745;51.060;13.786;2023-08-21T07:04:15;100771.91;;;23.94;100.00
74327;BME280;62745;51.060;13.786;2023-08-21T07:06:41;100765.06;;;23.97;100.00
74327;BME280;62745;51.060;13.786;2023-08-21T07:09:06;100763.22;;;24.08;100.00
74327;BME280;62745;51.060;13.786;2023-08-21T07:11:32;100762.69;;;24.26;100.00
74327;BME280;62745;51.060;13.786;2023-08-21T07:13:57;100766.84;;;24.39;100.00
74327;BME280;62745;51.060;13.786;2023-08-21T07:16:22;100754.56;;;24.41;100.00
74327;BME280;62745;51.060;13.786;2023-08-21T07:18:48;100766.28;;;24.52;100.00
74327;BME280;62745;51.060;13.786;2023-08-21T07:21:13;100768.75;;;24.48;100.00
74327;BME280;62745;51.060;13.786;2023-08-21T07:23:39;100780.53;;;24.64;100.00
74327;BME280;62745;51.060;13.786;2023-08-21T07:26:04;100776.06;;;24.27;100.00
74327;BME280;62745;51.060;13.786;2023-08-21T07:28:32;100781.91;;;24.56;100.00
74327;BME280;62745;51.060;13.786;2023-08-21T07:30:58;100764.13;;;24.59;100.00
74327;BME280;62745;51.060;13.786;2023-08-21T07:33:24;100772.06;;;24.71;100.00
74327;BME280;62745;51.060;13.786;2023-08-21T07:36:05;100773.69;;;24.92;100.00
74327;BME280;62745;51.060;13.786;2023-08-21T07:38:31;100787.34;;;25.17;100.00
74327;BME280;62745;51.060;13.786;2023-08-21T07:41:08;100770.94;;;25.28;100.00
74327;BME280;62745;51.060;13.786;2023-08-21T07:43:36;100787.06;;;25.29;100.00
74327;BME280;62745;51.060;13.786;2023-08-21T07:46:05;100775.06;;;25.20;100.00
74327;BME280;62745;51.060;13.786;2023-08-21T07:48:31;100780.75;;;25.39;100.00
74327;BME280;62745;51.060;13.786;2023-08-21T07:50:56;100783.50;;;25.39;100.00
74327;BME280;62745;51.060;13.786;2023-08-21T07:53:22;100759.91;;;25.58;100.00
74327;BME280;62745;51.060;13.786;2023-08-21T07:55:48;100766.69;;;25.66;100.00
74327;BME280;62745;51.060;13.786;2023-08-21T07:58:13;100769.63;;;25.95;100.00
74327;BME280;62745;51.060;13.786;2023-08-21T08:00:39;100770.94;;;26.02;100.00
74327;BME280;62745;51.060;13.786;2023-08-21T08:03:04;100767.00;;;26.24;100.00
74327;BME280;62745;51.060;13.786;2023-08-21T08:05:31;100773.28;;;26.24;98.46
74327;BME280;62745;51.060;13.786;2023-08-21T08:07:56;100775.97;;;26.40;98.84
74327;BME280;62745;51.060;13.786;2023-08-21T08:10:23;100763.00;;;26.50;98.77
74327;BME280;62745;51.060;13.786;2023-08-21T08:12:48;100768.69;;;26.59;97.69
74327;BME280;62745;51.060;13.786;2023-08-21T08:15:14;100770.91;;;26.57;99.05
74327;BME280;62745;51.060;13.786;2023-08-21T08:17:39;100786.66;;;26.31;100.00
74327;BME280;62745;51.060;13.786;2023-08-21T08:20:04;100781.44;;;26.40;99.64
74327;BME280;62745;51.060;13.786;2023-08-21T08:22:31;100779.88;;;26.23;100.00
74327;BME280;62745;51.060;13.786;2023-08-21T08:24:56;100779.53;;;26.30;100.00
74327;BME280;62745;51.060;13.786;2023-08-21T08:27:22;100774.94;;;26.64;97.47
74327;BME280;62745;51.060;13.786;2023-08-21T08:29:49;100788.56;;;26.75;97.82
74327;BME280;62745;51.060;13.786;2023-08-21T08:45:32;100797.88;;;27.37;98.01
74327;BME280;62745;51.060;13.786;2023-08-21T08:47:59;100788.09;;;26.96;97.47
74327;BME280;62745;51.060;13.786;2023-08-21T08:50:28;100791.47;;;26.88;99.31
74327;BME280;62745;51.060;13.786;2023-08-21T08:52:55;100793.72;;;26.81;97.21
74327;BME280;62745;51.060;13.786;2023-08-21T08:55:22;100786.56;;;26.85;97.82
74327;BME280;62745;51.060;13.786;2023-08-21T08:57:47;100780.97;;;26.95;97.33
74327;BME280;62745;51.060;13.786;2023-08-21T09:00:13;100781.97;;;27.39;97.56
74327;BME280;62745;51.060;13.786;2023-08-21T09:02:38;100790.88;;;27.25;97.43
74327;BME280;62745;51.060;13.786;2023-08-21T09:05:04;100792.00;;;27.24;95.87
74327;BME280;62745;51.060;13.786;2023-08-21T09:07:29;100795.25;;;27.50;93.88
74327;BME280;62745;51.060;13.786;2023-08-21T09:09:55;100793.22;;;27.85;88.86
74327;BME280;62745;51.060;13.786;2023-08-21T09:12:20;100791.06;;;28.25;90.22
74327;BME280;62745;51.060;13.786;2023-08-21T09:14:46;100784.47;;;27.83;89.09
74327;BME280;62745;51.060;13.786;2023-08-21T09:17:12;100793.44;;;28.31;89.97
74327;BME280;62745;51.060;13.786;2023-08-21T09:19:38;100792.81;;;28.39;87.55
74327;BME280;62745;51.060;13.786;2023-08-21T09:22:21;100785.31;;;28.21;87.73
74327;BME280;62745;51.060;13.786;2023-08-21T09:25:06;100790.75;;;28.07;85.88
74327;BME280;62745;51.060;13.786;2023-08-21T09:27:33;100785.28;;;27.83;85.62
74327;BME280;62745;51.060;13.786;2023-08-21T09:29:59;100788.75;;;27.70;87.54
74327;BME280;62745;51.060;13.786;2023-08-21T09:32:25;100789.22;;;27.77;85.97
74327;BME280;62745;51.060;13.786;2023-08-21T09:34:50;100787.44;;;28.29;85.79
74327;BME280;62745;51.060;13.786;2023-08-21T09:37:16;100785.09;;;28.55;84.47
74327;BME280;62745;51.060;13.786;2023-08-21T09:39:42;100789.63;;;28.65;84.10
74327;BME280;62745;51.060;13.786;2023-08-21T09:42:08;100789.53;;;28.89;82.24
74327;BME280;62745;51.060;13.786;2023-08-21T09:44:42;100789.38;;;28.99;82.28
74327;BME280;62745;51.060;13.786;2023-08-21T09:47:11;100779.59;;;28.93;80.16
74327;BME280;62745;51.060;13.786;2023-08-21T09:49:37;100783.75;;;29.04;79.29
74327;BME280;62745;51.060;13.786;2023-08-21T09:52:06;100786.47;;;29.23;78.21
74327;BME280;62745;51.060;13.786;2023-08-21T09:54:33;100775.25;;;29.33;75.34
74327;BME280;62745;51.060;13.786;2023-08-21T09:57:03;100785.09;;;29.67;74.79
74327;BME280;62745;51.060;13.786;2023-08-21T09:59:30;100776.44;;;29.59;71.64
74327;BME280;62745;51.060;13.786;2023-08-21T10:01:58;100769.16;;;29.77;71.04
74327;BME280;62745;51.060;13.786;2023-08-21T10:04:25;100767.72;;;30.07;68.79
74327;BME280;62745;51.060;13.786;2023-08-21T10:06:51;100767.94;;;30.33;66.83
74327;BME280;62745;51.060;13.786;2023-08-21T10:09:19;100769.19;;;30.49;66.04
74327;BME280;62745;51.060;13.786;2023-08-21T10:11:47;100764.44;;;30.41;67.56
74327;BME280;62745;51.060;13.786;2023-08-21T10:14:13;100765.31;;;30.50;65.91
74327;BME280;62745;51.060;13.786;2023-08-21T10:16:38;100769.28;;;30.58;61.79
74327;BME280;62745;51.060;13.786;2023-08-21T10:19:04;100762.25;;;30.97;62.43
74327;BME280;62745;51.060;13.786;2023-08-21T10:21:36;100770.34;;;31.64;60.71
74327;BME280;62745;51.060;13.786;2023-08-21T10:24:02;100769.97;;;31.96;58.82
74327;BME280;62745;51.060;13.786;2023-08-21T10:26:28;100755.81;;;32.07;56.66
74327;BME280;62745;51.060;13.786;2023-08-21T10:29:00;100761.81;;;31.91;57.33
74327;BME280;62745;51.060;13.786;2023-08-21T10:31:34;100746.69;;;31.89;58.76
74327;BME280;62745;51.060;13.786;2023-08-21T10:34:02;100759.47;;;31.19;58.06
74327;BME280;62745;51.060;13.786;2023-08-21T10:39:22;100753.31;;;29.97;65.18
74327;BME280;62745;51.060;13.786;2023-08-21T10:47:17;100754.44;;;31.21;59.63
74327;BME280;62745;51.060;13.786;2023-08-21T10:49:54;100753.91;;;31.50;56.44
74327;BME280;62745;51.060;13.786;2023-08-21T10:52:21;100748.16;;;31.29;57.37
74327;BME280;62745;51.060;13.786;2023-08-21T10:54:50;100750.66;;;30.86;61.48
74327;BME280;62745;51.060;13.786;2023-08-21T10:57:16;100742.84;;;31.41;62.20
74327;BME280;62745;51.060;13.786;2023-08-21T11:02:17;100744.34;;;31.65;55.90
74327;BME280;62745;51.060;13.786;2023-08-21T11:04:43;100738.56;;;31.84;55.64
74327;BME280;62745;51.060;13.786;2023-08-21T11:07:10;100737.78;;;32.18;53.94
74327;BME280;62745;51.060;13.786;2023-08-21T11:09:36;100736.72;;;31.62;54.52
74327;BME280;62745;51.060;13.786;2023-08-21T11:12:09;100738.44;;;32.15;55.56
74327;BME280;62745;51.060;13.786;2023-08-21T11:14:35;100736.41;;;31.72;55.41
74327;BME280;62745;51.060;13.786;2023-08-21T11:17:01;100731.09;;;31.76;53.12
74327;BME280;62745;51.060;13.786;2023-08-21T11:19:26;100728.50;;;32.14;56.02
74327;BME280;62745;51.060;13.786;2023-08-21T11:21:51;100728.69;;;32.43;56.01
74327;BME280;62745;51.060;13.786;2023-08-21T11:24:16;100734.53;;;31.98;54.21
74327;BME280;62745;51.060;13.786;2023-08-21T11:26:42;100729.31;;;31.00;55.08
74327;BME280;62745;51.060;13.786;2023-08-21T11:29:07;100733.34;;;30.94;55.67
74327;BME280;62745;51.060;13.786;2023-08-21T11:31:33;100732.97;;;31.66;54.37
74327;BME280;62745;51.060;13.786;2023-08-21T11:33:58;100733.41;;;32.34;52.47
74327;BME280;62745;51.060;13.786;2023-08-21T11:36:23;100725.25;;;32.64;49.99
74327;BME280;62745;51.060;13.786;2023-08-21T11:38:58;100721.78;;;32.93;49.48
74327;BME280;62745;51.060;13.786;2023-08-21T11:41:25;100721.66;;;32.80;48.99
74327;BME280;62745;51.060;13.786;2023-08-21T11:43:50;100713.91;;;33.03;51.99
74327;BME280;62745;51.060;13.786;2023-08-21T11:46:17;100717.00;;;32.29;53.11
74327;BME280;62745;51.060;13.786;2023-08-21T11:48:44;100724.44;;;31.37;57.37
74327;BME280;62745;51.060;13.786;2023-08-21T11:51:10;100730.19;;;31.58;57.88
74327;BME280;62745;51.060;13.786;2023-08-21T11:53:37;100725.31;;;31.55;55.21
74327;BME280;62745;51.060;13.786;2023-08-21T11:56:03;100719.94;;;31.10;56.94
74327;BME280;62745;51.060;13.786;2023-08-21T11:58:37;100706.25;;;30.96;58.02
74327;BME280;62745;51.060;13.786;2023-08-21T12:01:04;100722.50;;;31.37;57.92
74327;BME280;62745;51.060;13.786;2023-08-21T12:03:30;100712.56;;;31.93;55.39
74327;BME280;62745;51.060;13.786;2023-08-21T12:05:56;100712.56;;;32.19;53.42
74327;BME280;62745;51.060;13.786;2023-08-21T12:08:21;100707.72;;;32.42;55.38
74327;BME280;62745;51.060;13.786;2023-08-21T12:10:50;100710.81;;;33.05;52.62
74327;BME280;62745;51.060;13.786;2023-08-21T12:13:15;100710.84;;;33.64;50.24
74327;BME280;62745;51.060;13.786;2023-08-21T12:15:41;100705.44;;;33.97;46.84
74327;BME280;62745;51.060;13.786;2023-08-21T12:18:06;100707.50;;;34.21;48.24
74327;BME280;62745;51.060;13.786;2023-08-21T12:20:31;100713.31;;;34.28;47.86
74327;BME280;62745;51.060;13.786;2023-08-21T12:22:57;100707.38;;;34.38;48.08
74327;BME280;62745;51.060;13.786;2023-08-21T12:25:23;100709.72;;;34.93;47.40
74327;BME280;62745;51.060;13.786;2023-08-21T12:27:49;100715.44;;;34.76;47.83
74327;BME280;62745;51.060;13.786;2023-08-21T12:30:14;100710.66;;;34.85;47.93
74327;BME280;62745;51.060;13.786;2023-08-21T12:32:39;100707.69;;;35.64;44.74
74327;BME280;62745;51.060;13.786;2023-08-21T12:35:06;100702.75;;;35.97;44.21
74327;BME280;62745;51.060;13.786;2023-08-21T12:37:31;100703.75;;;36.45;42.09
74327;BME280;62745;51.060;13.786;2023-08-21T12:39:56;100700.03;;;37.48;42.03
74327;BME280;62745;51.060;13.786;2023-08-21T12:42:22;100704.16;;;38.08;39.69
74327;BME280;62745;51.060;13.786;2023-08-21T12:44:47;100697.53;;;38.55;38.28
74327;BME280;62745;51.060;13.786;2023-08-21T12:47:12;100696.13;;;39.10;36.54
74327;BME280;62745;51.060;13.786;2023-08-21T12:49:38;100694.13;;;38.46;37.25
74327;BME280;62745;51.060;13.786;2023-08-21T12:52:04;100696.09;;;39.60;35.23
74327;BME280;62745;51.060;13.786;2023-08-21T12:54:31;100692.72;;;39.21;35.15
74327;BME280;62745;51.060;13.786;2023-08-21T12:56:56;100689.81;;;38.68;35.92